<?xml version="1.0" encoding="UTF-8" standalone="no" ?>
<gpx xmlns="http://www.topografix.com/GPX/1/1" xmlns:xsi="http://www.w3.org/2001/XMLSchema-instance" xsi:schemaLocation="http://www.topografix.com/GPX/1/1 http://www.topografix.com/GPX/1/1/gpx.xsd" version="1.1" creator="VisuGPX - https://www.visugpx.com">
  <metadata>
    <name>RSPFY-Tour de la plaine de la Madeleine</name>
    <desc><![CDATA[boucle depuis Chevreuse passant par le château de la Madeleine, la forêt du Claireau, la vallée du Rhodon et retour sur Chevreuse par le chemin Jean Racine.]]></desc>
  </metadata>
  <trk>
    <name><![CDATA[2021-12-16 09:04]]></name>
    <desc><![CDATA[<p>Heure de départ: 09:04 16 déc. 2021<br/>Heure d'arrivée: 12:01 16 déc. 2021<br/>Distance: 11,7 km (02:56)<br/>Temps déplacement: 02:18<br/>Vitesse moyenne: 3,96 km/h<br/>Vitesse moyenne mouv.: 5,06 km/h<br/>Vitesse Max.: 7,93 km/h<br/>Altitude minimale: 70 m<br/>Altitude maximale: 174 m<br/>Vitesse de montée: 263,7 m/h<br/>Vitesse de descente: -290,9 m/h<br/>Gain d'altitude: 400 m<br/>Perte d'altitude: -401 m<br/>Temps de montée: 01:31<br/>Temps de descente: 01:22<br/></p><hr align="center" width="480" style="height: 2px; width: 517px"/>]]></desc>
    <trkseg>
      <trkpt lat="48.70325" lon="2.04464">
        <ele>86.8</ele>
        <time>2021-12-16T08:04:29Z</time>
      </trkpt>
      <trkpt lat="48.70342" lon="2.04476">
        <ele>86</ele>
        <time>2021-12-16T08:05:10Z</time>
      </trkpt>
      <trkpt lat="48.7036" lon="2.04469">
        <ele>86.1</ele>
        <time>2021-12-16T08:05:36Z</time>
      </trkpt>
      <trkpt lat="48.70364" lon="2.04442">
        <ele>87</ele>
        <time>2021-12-16T08:05:50Z</time>
      </trkpt>
      <trkpt lat="48.70377" lon="2.04422">
        <ele>87.2</ele>
        <time>2021-12-16T08:06:07Z</time>
      </trkpt>
      <trkpt lat="48.70395" lon="2.04412">
        <ele>86.5</ele>
        <time>2021-12-16T08:06:21Z</time>
      </trkpt>
      <trkpt lat="48.70409" lon="2.04394">
        <ele>85.6</ele>
        <time>2021-12-16T08:06:36Z</time>
      </trkpt>
      <trkpt lat="48.70415" lon="2.04366">
        <ele>85.1</ele>
        <time>2021-12-16T08:06:51Z</time>
      </trkpt>
      <trkpt lat="48.70414" lon="2.04337">
        <ele>84.4</ele>
        <time>2021-12-16T08:07:04Z</time>
      </trkpt>
      <trkpt lat="48.70412" lon="2.04308">
        <ele>84.3</ele>
        <time>2021-12-16T08:07:16Z</time>
      </trkpt>
      <trkpt lat="48.70408" lon="2.04281">
        <ele>84</ele>
        <time>2021-12-16T08:07:31Z</time>
      </trkpt>
      <trkpt lat="48.70402" lon="2.04252">
        <ele>84.1</ele>
        <time>2021-12-16T08:07:44Z</time>
      </trkpt>
      <trkpt lat="48.70408" lon="2.04226">
        <ele>83</ele>
        <time>2021-12-16T08:07:57Z</time>
      </trkpt>
      <trkpt lat="48.7041" lon="2.04198">
        <ele>82.9</ele>
        <time>2021-12-16T08:08:09Z</time>
      </trkpt>
      <trkpt lat="48.70413" lon="2.0417">
        <ele>83.3</ele>
        <time>2021-12-16T08:08:23Z</time>
      </trkpt>
      <trkpt lat="48.7043" lon="2.0418">
        <ele>81.5</ele>
        <time>2021-12-16T08:08:40Z</time>
      </trkpt>
      <trkpt lat="48.7042" lon="2.04156">
        <ele>82.6</ele>
        <time>2021-12-16T08:12:14Z</time>
      </trkpt>
      <trkpt lat="48.70416" lon="2.04128">
        <ele>83.5</ele>
        <time>2021-12-16T08:12:31Z</time>
      </trkpt>
      <trkpt lat="48.70421" lon="2.04101">
        <ele>83.7</ele>
        <time>2021-12-16T08:12:47Z</time>
      </trkpt>
      <trkpt lat="48.70425" lon="2.04072">
        <ele>83.5</ele>
        <time>2021-12-16T08:13:02Z</time>
      </trkpt>
      <trkpt lat="48.70426" lon="2.04044">
        <ele>83.7</ele>
        <time>2021-12-16T08:13:14Z</time>
      </trkpt>
      <trkpt lat="48.70432" lon="2.04016">
        <ele>83.7</ele>
        <time>2021-12-16T08:13:26Z</time>
      </trkpt>
      <trkpt lat="48.70437" lon="2.03988">
        <ele>82.5</ele>
        <time>2021-12-16T08:13:40Z</time>
      </trkpt>
      <trkpt lat="48.70446" lon="2.03963">
        <ele>81.6</ele>
        <time>2021-12-16T08:13:53Z</time>
      </trkpt>
      <trkpt lat="48.70456" lon="2.0394">
        <ele>80.9</ele>
        <time>2021-12-16T08:14:05Z</time>
      </trkpt>
      <trkpt lat="48.70472" lon="2.03956">
        <ele>78.9</ele>
        <time>2021-12-16T08:14:36Z</time>
      </trkpt>
      <trkpt lat="48.70488" lon="2.0397">
        <ele>78.8</ele>
        <time>2021-12-16T08:14:50Z</time>
      </trkpt>
      <trkpt lat="48.70506" lon="2.03973">
        <ele>78</ele>
        <time>2021-12-16T08:15:02Z</time>
      </trkpt>
      <trkpt lat="48.7052" lon="2.03989">
        <ele>78.8</ele>
        <time>2021-12-16T08:15:15Z</time>
      </trkpt>
      <trkpt lat="48.70533" lon="2.04009">
        <ele>79.1</ele>
        <time>2021-12-16T08:15:29Z</time>
      </trkpt>
      <trkpt lat="48.7055" lon="2.04018">
        <ele>78.3</ele>
        <time>2021-12-16T08:15:42Z</time>
      </trkpt>
      <trkpt lat="48.70568" lon="2.04019">
        <ele>78.4</ele>
        <time>2021-12-16T08:15:54Z</time>
      </trkpt>
      <trkpt lat="48.70582" lon="2.04">
        <ele>78.9</ele>
        <time>2021-12-16T08:16:09Z</time>
      </trkpt>
      <trkpt lat="48.70583" lon="2.03973">
        <ele>79</ele>
        <time>2021-12-16T08:16:24Z</time>
      </trkpt>
      <trkpt lat="48.70596" lon="2.03953">
        <ele>79</ele>
        <time>2021-12-16T08:16:40Z</time>
      </trkpt>
      <trkpt lat="48.70614" lon="2.03944">
        <ele>79</ele>
        <time>2021-12-16T08:16:57Z</time>
      </trkpt>
      <trkpt lat="48.70632" lon="2.03939">
        <ele>79</ele>
        <time>2021-12-16T08:17:13Z</time>
      </trkpt>
      <trkpt lat="48.70646" lon="2.03959">
        <ele>78.9</ele>
        <time>2021-12-16T08:17:28Z</time>
      </trkpt>
      <trkpt lat="48.7066" lon="2.03978">
        <ele>78.3</ele>
        <time>2021-12-16T08:17:41Z</time>
      </trkpt>
      <trkpt lat="48.70678" lon="2.03975">
        <ele>78.9</ele>
        <time>2021-12-16T08:17:53Z</time>
      </trkpt>
      <trkpt lat="48.70696" lon="2.03971">
        <ele>80.1</ele>
        <time>2021-12-16T08:18:07Z</time>
      </trkpt>
      <trkpt lat="48.70714" lon="2.03961">
        <ele>81</ele>
        <time>2021-12-16T08:18:23Z</time>
      </trkpt>
      <trkpt lat="48.70729" lon="2.03944">
        <ele>82.3</ele>
        <time>2021-12-16T08:18:37Z</time>
      </trkpt>
      <trkpt lat="48.7074" lon="2.03966">
        <ele>82.9</ele>
        <time>2021-12-16T08:19:13Z</time>
      </trkpt>
      <trkpt lat="48.70755" lon="2.03983">
        <ele>84.3</ele>
        <time>2021-12-16T08:19:33Z</time>
      </trkpt>
      <trkpt lat="48.70767" lon="2.04004">
        <ele>84.6</ele>
        <time>2021-12-16T08:19:46Z</time>
      </trkpt>
      <trkpt lat="48.70779" lon="2.04025">
        <ele>85.9</ele>
        <time>2021-12-16T08:20:02Z</time>
      </trkpt>
      <trkpt lat="48.70796" lon="2.04035">
        <ele>86.8</ele>
        <time>2021-12-16T08:20:15Z</time>
      </trkpt>
      <trkpt lat="48.70806" lon="2.0406">
        <ele>88</ele>
        <time>2021-12-16T08:20:33Z</time>
      </trkpt>
      <trkpt lat="48.70821" lon="2.04044">
        <ele>88.9</ele>
        <time>2021-12-16T08:20:53Z</time>
      </trkpt>
      <trkpt lat="48.70834" lon="2.04024">
        <ele>90.1</ele>
        <time>2021-12-16T08:21:06Z</time>
      </trkpt>
      <trkpt lat="48.70852" lon="2.04015">
        <ele>93.1</ele>
        <time>2021-12-16T08:21:24Z</time>
      </trkpt>
      <trkpt lat="48.7087" lon="2.0402">
        <ele>95.9</ele>
        <time>2021-12-16T08:21:34Z</time>
      </trkpt>
      <trkpt lat="48.70888" lon="2.0402">
        <ele>98.4</ele>
        <time>2021-12-16T08:21:45Z</time>
      </trkpt>
      <trkpt lat="48.70894" lon="2.04047">
        <ele>101.3</ele>
        <time>2021-12-16T08:22:07Z</time>
      </trkpt>
      <trkpt lat="48.70892" lon="2.04074">
        <ele>103.5</ele>
        <time>2021-12-16T08:22:24Z</time>
      </trkpt>
      <trkpt lat="48.70897" lon="2.041">
        <ele>106.7</ele>
        <time>2021-12-16T08:22:44Z</time>
      </trkpt>
      <trkpt lat="48.70899" lon="2.04129">
        <ele>109.6</ele>
        <time>2021-12-16T08:23:01Z</time>
      </trkpt>
      <trkpt lat="48.70904" lon="2.04155">
        <ele>113.9</ele>
        <time>2021-12-16T08:23:18Z</time>
      </trkpt>
      <trkpt lat="48.70908" lon="2.04184">
        <ele>117.1</ele>
        <time>2021-12-16T08:23:36Z</time>
      </trkpt>
      <trkpt lat="48.70913" lon="2.04211">
        <ele>119.5</ele>
        <time>2021-12-16T08:23:51Z</time>
      </trkpt>
      <trkpt lat="48.70931" lon="2.04204">
        <ele>127.6</ele>
        <time>2021-12-16T08:24:26Z</time>
      </trkpt>
      <trkpt lat="48.70941" lon="2.04182">
        <ele>131.3</ele>
        <time>2021-12-16T08:24:44Z</time>
      </trkpt>
      <trkpt lat="48.70948" lon="2.04209">
        <ele>135.6</ele>
        <time>2021-12-16T08:25:25Z</time>
      </trkpt>
      <trkpt lat="48.70964" lon="2.04193">
        <ele>142.1</ele>
        <time>2021-12-16T08:25:52Z</time>
      </trkpt>
      <trkpt lat="48.70975" lon="2.04171">
        <ele>144.1</ele>
        <time>2021-12-16T08:26:09Z</time>
      </trkpt>
      <trkpt lat="48.70993" lon="2.04165">
        <ele>148.6</ele>
        <time>2021-12-16T08:26:27Z</time>
      </trkpt>
      <trkpt lat="48.71009" lon="2.04151">
        <ele>150.2</ele>
        <time>2021-12-16T08:26:45Z</time>
      </trkpt>
      <trkpt lat="48.71023" lon="2.04134">
        <ele>151.1</ele>
        <time>2021-12-16T08:29:01Z</time>
      </trkpt>
      <trkpt lat="48.71039" lon="2.0412">
        <ele>150.3</ele>
        <time>2021-12-16T08:29:15Z</time>
      </trkpt>
      <trkpt lat="48.71057" lon="2.0412">
        <ele>151.2</ele>
        <time>2021-12-16T08:29:38Z</time>
      </trkpt>
      <trkpt lat="48.71073" lon="2.04134">
        <ele>153.3</ele>
        <time>2021-12-16T08:29:52Z</time>
      </trkpt>
      <trkpt lat="48.71092" lon="2.04139">
        <ele>154.3</ele>
        <time>2021-12-16T08:30:08Z</time>
      </trkpt>
      <trkpt lat="48.71111" lon="2.04143">
        <ele>155.2</ele>
        <time>2021-12-16T08:30:22Z</time>
      </trkpt>
      <trkpt lat="48.71123" lon="2.04165">
        <ele>156</ele>
        <time>2021-12-16T08:30:36Z</time>
      </trkpt>
      <trkpt lat="48.71131" lon="2.0419">
        <ele>156.6</ele>
        <time>2021-12-16T08:30:49Z</time>
      </trkpt>
      <trkpt lat="48.7114" lon="2.04215">
        <ele>157.1</ele>
        <time>2021-12-16T08:31:02Z</time>
      </trkpt>
      <trkpt lat="48.71148" lon="2.04241">
        <ele>157.7</ele>
        <time>2021-12-16T08:31:15Z</time>
      </trkpt>
      <trkpt lat="48.7115" lon="2.04269">
        <ele>157.8</ele>
        <time>2021-12-16T08:31:27Z</time>
      </trkpt>
      <trkpt lat="48.7115" lon="2.04296">
        <ele>157.8</ele>
        <time>2021-12-16T08:31:40Z</time>
      </trkpt>
      <trkpt lat="48.7116" lon="2.04321">
        <ele>158.5</ele>
        <time>2021-12-16T08:32:10Z</time>
      </trkpt>
      <trkpt lat="48.71163" lon="2.0435">
        <ele>158.7</ele>
        <time>2021-12-16T08:32:25Z</time>
      </trkpt>
      <trkpt lat="48.71163" lon="2.04379">
        <ele>159.3</ele>
        <time>2021-12-16T08:32:38Z</time>
      </trkpt>
      <trkpt lat="48.71164" lon="2.04408">
        <ele>159.7</ele>
        <time>2021-12-16T08:32:52Z</time>
      </trkpt>
      <trkpt lat="48.71163" lon="2.04436">
        <ele>160.2</ele>
        <time>2021-12-16T08:33:07Z</time>
      </trkpt>
      <trkpt lat="48.7116" lon="2.04465">
        <ele>160.2</ele>
        <time>2021-12-16T08:33:19Z</time>
      </trkpt>
      <trkpt lat="48.71157" lon="2.04494">
        <ele>160.2</ele>
        <time>2021-12-16T08:33:30Z</time>
      </trkpt>
      <trkpt lat="48.71156" lon="2.04523">
        <ele>160.2</ele>
        <time>2021-12-16T08:33:41Z</time>
      </trkpt>
      <trkpt lat="48.71156" lon="2.04552">
        <ele>160.6</ele>
        <time>2021-12-16T08:33:54Z</time>
      </trkpt>
      <trkpt lat="48.71157" lon="2.0458">
        <ele>160.6</ele>
        <time>2021-12-16T08:34:07Z</time>
      </trkpt>
      <trkpt lat="48.71156" lon="2.04608">
        <ele>161.2</ele>
        <time>2021-12-16T08:34:21Z</time>
      </trkpt>
      <trkpt lat="48.71155" lon="2.04637">
        <ele>161.6</ele>
        <time>2021-12-16T08:34:33Z</time>
      </trkpt>
      <trkpt lat="48.71156" lon="2.04665">
        <ele>161.6</ele>
        <time>2021-12-16T08:34:47Z</time>
      </trkpt>
      <trkpt lat="48.71159" lon="2.04692">
        <ele>161.7</ele>
        <time>2021-12-16T08:35:01Z</time>
      </trkpt>
      <trkpt lat="48.71153" lon="2.04718">
        <ele>161.5</ele>
        <time>2021-12-16T08:35:15Z</time>
      </trkpt>
      <trkpt lat="48.7114" lon="2.04739">
        <ele>161.7</ele>
        <time>2021-12-16T08:35:40Z</time>
      </trkpt>
      <trkpt lat="48.71126" lon="2.04758">
        <ele>161.2</ele>
        <time>2021-12-16T08:35:56Z</time>
      </trkpt>
      <trkpt lat="48.71111" lon="2.04775">
        <ele>160.9</ele>
        <time>2021-12-16T08:36:12Z</time>
      </trkpt>
      <trkpt lat="48.71096" lon="2.04792">
        <ele>159.7</ele>
        <time>2021-12-16T08:36:26Z</time>
      </trkpt>
      <trkpt lat="48.71082" lon="2.04809">
        <ele>158.9</ele>
        <time>2021-12-16T08:36:38Z</time>
      </trkpt>
      <trkpt lat="48.71068" lon="2.04829">
        <ele>157.4</ele>
        <time>2021-12-16T08:36:50Z</time>
      </trkpt>
      <trkpt lat="48.71055" lon="2.04847">
        <ele>156.4</ele>
        <time>2021-12-16T08:37:03Z</time>
      </trkpt>
      <trkpt lat="48.7104" lon="2.04867">
        <ele>155</ele>
        <time>2021-12-16T08:37:16Z</time>
      </trkpt>
      <trkpt lat="48.71025" lon="2.04884">
        <ele>153.2</ele>
        <time>2021-12-16T08:37:29Z</time>
      </trkpt>
      <trkpt lat="48.71025" lon="2.04911">
        <ele>154.3</ele>
        <time>2021-12-16T08:37:49Z</time>
      </trkpt>
      <trkpt lat="48.71031" lon="2.04937">
        <ele>156.1</ele>
        <time>2021-12-16T08:38:07Z</time>
      </trkpt>
      <trkpt lat="48.71042" lon="2.0496">
        <ele>157.8</ele>
        <time>2021-12-16T08:38:26Z</time>
      </trkpt>
      <trkpt lat="48.71055" lon="2.0498">
        <ele>159.2</ele>
        <time>2021-12-16T08:38:40Z</time>
      </trkpt>
      <trkpt lat="48.71067" lon="2.05001">
        <ele>160.4</ele>
        <time>2021-12-16T08:38:54Z</time>
      </trkpt>
      <trkpt lat="48.71078" lon="2.05022">
        <ele>161.5</ele>
        <time>2021-12-16T08:39:08Z</time>
      </trkpt>
      <trkpt lat="48.71092" lon="2.05044">
        <ele>162.3</ele>
        <time>2021-12-16T08:39:23Z</time>
      </trkpt>
      <trkpt lat="48.71102" lon="2.05066">
        <ele>162.7</ele>
        <time>2021-12-16T08:39:39Z</time>
      </trkpt>
      <trkpt lat="48.71117" lon="2.05084">
        <ele>163.2</ele>
        <time>2021-12-16T08:39:52Z</time>
      </trkpt>
      <trkpt lat="48.71129" lon="2.05104">
        <ele>163.7</ele>
        <time>2021-12-16T08:40:06Z</time>
      </trkpt>
      <trkpt lat="48.71143" lon="2.05123">
        <ele>164.2</ele>
        <time>2021-12-16T08:40:21Z</time>
      </trkpt>
      <trkpt lat="48.71157" lon="2.05143">
        <ele>164.6</ele>
        <time>2021-12-16T08:40:33Z</time>
      </trkpt>
      <trkpt lat="48.71168" lon="2.05166">
        <ele>165</ele>
        <time>2021-12-16T08:40:47Z</time>
      </trkpt>
      <trkpt lat="48.71183" lon="2.05184">
        <ele>165</ele>
        <time>2021-12-16T08:41:01Z</time>
      </trkpt>
      <trkpt lat="48.71197" lon="2.05202">
        <ele>165.1</ele>
        <time>2021-12-16T08:41:14Z</time>
      </trkpt>
      <trkpt lat="48.71209" lon="2.05223">
        <ele>165.5</ele>
        <time>2021-12-16T08:41:30Z</time>
      </trkpt>
      <trkpt lat="48.71223" lon="2.05243">
        <ele>166</ele>
        <time>2021-12-16T08:41:45Z</time>
      </trkpt>
      <trkpt lat="48.71234" lon="2.05267">
        <ele>166</ele>
        <time>2021-12-16T08:42:01Z</time>
      </trkpt>
      <trkpt lat="48.71246" lon="2.05287">
        <ele>166</ele>
        <time>2021-12-16T08:42:14Z</time>
      </trkpt>
      <trkpt lat="48.71261" lon="2.05307">
        <ele>166</ele>
        <time>2021-12-16T08:42:28Z</time>
      </trkpt>
      <trkpt lat="48.71271" lon="2.05329">
        <ele>166</ele>
        <time>2021-12-16T08:42:44Z</time>
      </trkpt>
      <trkpt lat="48.71285" lon="2.05349">
        <ele>165.6</ele>
        <time>2021-12-16T08:42:57Z</time>
      </trkpt>
      <trkpt lat="48.71293" lon="2.05376">
        <ele>165.3</ele>
        <time>2021-12-16T08:43:11Z</time>
      </trkpt>
      <trkpt lat="48.71305" lon="2.05396">
        <ele>165</ele>
        <time>2021-12-16T08:43:26Z</time>
      </trkpt>
      <trkpt lat="48.71316" lon="2.0542">
        <ele>164.9</ele>
        <time>2021-12-16T08:43:41Z</time>
      </trkpt>
      <trkpt lat="48.71326" lon="2.05444">
        <ele>164</ele>
        <time>2021-12-16T08:43:56Z</time>
      </trkpt>
      <trkpt lat="48.7134" lon="2.05464">
        <ele>164</ele>
        <time>2021-12-16T08:44:11Z</time>
      </trkpt>
      <trkpt lat="48.71353" lon="2.05484">
        <ele>163.6</ele>
        <time>2021-12-16T08:44:23Z</time>
      </trkpt>
      <trkpt lat="48.71364" lon="2.05506">
        <ele>163</ele>
        <time>2021-12-16T08:44:35Z</time>
      </trkpt>
      <trkpt lat="48.71381" lon="2.05519">
        <ele>163</ele>
        <time>2021-12-16T08:44:46Z</time>
      </trkpt>
      <trkpt lat="48.7139" lon="2.05543">
        <ele>163</ele>
        <time>2021-12-16T08:45:00Z</time>
      </trkpt>
      <trkpt lat="48.71404" lon="2.05561">
        <ele>162.4</ele>
        <time>2021-12-16T08:45:13Z</time>
      </trkpt>
      <trkpt lat="48.71422" lon="2.05567">
        <ele>161.6</ele>
        <time>2021-12-16T08:45:28Z</time>
      </trkpt>
      <trkpt lat="48.71437" lon="2.05549">
        <ele>160.5</ele>
        <time>2021-12-16T08:45:44Z</time>
      </trkpt>
      <trkpt lat="48.71451" lon="2.0553">
        <ele>159.5</ele>
        <time>2021-12-16T08:45:58Z</time>
      </trkpt>
      <trkpt lat="48.71464" lon="2.05509">
        <ele>159.8</ele>
        <time>2021-12-16T08:46:12Z</time>
      </trkpt>
      <trkpt lat="48.71477" lon="2.05487">
        <ele>160</ele>
        <time>2021-12-16T08:46:25Z</time>
      </trkpt>
      <trkpt lat="48.7149" lon="2.05466">
        <ele>160</ele>
        <time>2021-12-16T08:46:39Z</time>
      </trkpt>
      <trkpt lat="48.71501" lon="2.05444">
        <ele>160</ele>
        <time>2021-12-16T08:46:51Z</time>
      </trkpt>
      <trkpt lat="48.71515" lon="2.05427">
        <ele>160.4</ele>
        <time>2021-12-16T08:47:06Z</time>
      </trkpt>
      <trkpt lat="48.71526" lon="2.05403">
        <ele>160.6</ele>
        <time>2021-12-16T08:47:18Z</time>
      </trkpt>
      <trkpt lat="48.71536" lon="2.05381">
        <ele>160.2</ele>
        <time>2021-12-16T08:47:31Z</time>
      </trkpt>
      <trkpt lat="48.7155" lon="2.0536">
        <ele>159.4</ele>
        <time>2021-12-16T08:47:47Z</time>
      </trkpt>
      <trkpt lat="48.71566" lon="2.05346">
        <ele>158.3</ele>
        <time>2021-12-16T08:48:04Z</time>
      </trkpt>
      <trkpt lat="48.71583" lon="2.05335">
        <ele>156.9</ele>
        <time>2021-12-16T08:48:19Z</time>
      </trkpt>
      <trkpt lat="48.71597" lon="2.05317">
        <ele>155.6</ele>
        <time>2021-12-16T08:48:35Z</time>
      </trkpt>
      <trkpt lat="48.71614" lon="2.05307">
        <ele>154.5</ele>
        <time>2021-12-16T08:48:50Z</time>
      </trkpt>
      <trkpt lat="48.71631" lon="2.05295">
        <ele>153.8</ele>
        <time>2021-12-16T08:49:03Z</time>
      </trkpt>
      <trkpt lat="48.71647" lon="2.05279">
        <ele>154.6</ele>
        <time>2021-12-16T08:49:13Z</time>
      </trkpt>
      <trkpt lat="48.71664" lon="2.05268">
        <ele>154.8</ele>
        <time>2021-12-16T08:49:24Z</time>
      </trkpt>
      <trkpt lat="48.71682" lon="2.05261">
        <ele>154.4</ele>
        <time>2021-12-16T08:49:35Z</time>
      </trkpt>
      <trkpt lat="48.717" lon="2.05255">
        <ele>154.2</ele>
        <time>2021-12-16T08:50:00Z</time>
      </trkpt>
      <trkpt lat="48.71718" lon="2.05252">
        <ele>153.8</ele>
        <time>2021-12-16T08:50:12Z</time>
      </trkpt>
      <trkpt lat="48.71737" lon="2.05245">
        <ele>153.9</ele>
        <time>2021-12-16T08:50:28Z</time>
      </trkpt>
      <trkpt lat="48.71756" lon="2.05244">
        <ele>153.4</ele>
        <time>2021-12-16T08:50:39Z</time>
      </trkpt>
      <trkpt lat="48.71775" lon="2.05243">
        <ele>152.8</ele>
        <time>2021-12-16T08:50:52Z</time>
      </trkpt>
      <trkpt lat="48.71794" lon="2.0524">
        <ele>153.7</ele>
        <time>2021-12-16T08:51:03Z</time>
      </trkpt>
      <trkpt lat="48.71813" lon="2.05239">
        <ele>154.8</ele>
        <time>2021-12-16T08:51:15Z</time>
      </trkpt>
      <trkpt lat="48.71832" lon="2.0524">
        <ele>156.2</ele>
        <time>2021-12-16T08:51:27Z</time>
      </trkpt>
      <trkpt lat="48.7185" lon="2.05251">
        <ele>156.6</ele>
        <time>2021-12-16T08:51:48Z</time>
      </trkpt>
      <trkpt lat="48.71868" lon="2.05255">
        <ele>156.9</ele>
        <time>2021-12-16T08:52:00Z</time>
      </trkpt>
      <trkpt lat="48.71888" lon="2.05257">
        <ele>157</ele>
        <time>2021-12-16T08:52:10Z</time>
      </trkpt>
      <trkpt lat="48.71907" lon="2.05258">
        <ele>157</ele>
        <time>2021-12-16T08:52:19Z</time>
      </trkpt>
      <trkpt lat="48.71925" lon="2.05258">
        <ele>156.9</ele>
        <time>2021-12-16T08:52:29Z</time>
      </trkpt>
      <trkpt lat="48.71942" lon="2.05271">
        <ele>156.3</ele>
        <time>2021-12-16T08:55:02Z</time>
      </trkpt>
      <trkpt lat="48.71952" lon="2.05294">
        <ele>155.6</ele>
        <time>2021-12-16T08:55:20Z</time>
      </trkpt>
      <trkpt lat="48.71968" lon="2.05309">
        <ele>154.1</ele>
        <time>2021-12-16T08:55:33Z</time>
      </trkpt>
      <trkpt lat="48.71983" lon="2.05326">
        <ele>152.6</ele>
        <time>2021-12-16T08:55:49Z</time>
      </trkpt>
      <trkpt lat="48.71999" lon="2.0534">
        <ele>150.4</ele>
        <time>2021-12-16T08:56:08Z</time>
      </trkpt>
      <trkpt lat="48.7201" lon="2.05361">
        <ele>146.9</ele>
        <time>2021-12-16T08:56:30Z</time>
      </trkpt>
      <trkpt lat="48.72025" lon="2.05379">
        <ele>142.8</ele>
        <time>2021-12-16T08:56:52Z</time>
      </trkpt>
      <trkpt lat="48.72042" lon="2.05389">
        <ele>141.6</ele>
        <time>2021-12-16T08:57:10Z</time>
      </trkpt>
      <trkpt lat="48.72047" lon="2.05416">
        <ele>138.1</ele>
        <time>2021-12-16T08:57:34Z</time>
      </trkpt>
      <trkpt lat="48.72062" lon="2.0543">
        <ele>136.5</ele>
        <time>2021-12-16T08:58:52Z</time>
      </trkpt>
      <trkpt lat="48.72073" lon="2.05452">
        <ele>133.6</ele>
        <time>2021-12-16T08:59:19Z</time>
      </trkpt>
      <trkpt lat="48.72092" lon="2.05459">
        <ele>133.5</ele>
        <time>2021-12-16T08:59:38Z</time>
      </trkpt>
      <trkpt lat="48.72109" lon="2.05472">
        <ele>132.8</ele>
        <time>2021-12-16T08:59:53Z</time>
      </trkpt>
      <trkpt lat="48.72126" lon="2.0548">
        <ele>132.5</ele>
        <time>2021-12-16T09:00:10Z</time>
      </trkpt>
      <trkpt lat="48.72145" lon="2.05479">
        <ele>132.8</ele>
        <time>2021-12-16T09:00:25Z</time>
      </trkpt>
      <trkpt lat="48.72163" lon="2.05473">
        <ele>133.1</ele>
        <time>2021-12-16T09:00:36Z</time>
      </trkpt>
      <trkpt lat="48.7218" lon="2.05459">
        <ele>132.7</ele>
        <time>2021-12-16T09:00:50Z</time>
      </trkpt>
      <trkpt lat="48.72195" lon="2.05442">
        <ele>133.2</ele>
        <time>2021-12-16T09:01:03Z</time>
      </trkpt>
      <trkpt lat="48.72211" lon="2.05429">
        <ele>130.9</ele>
        <time>2021-12-16T09:01:16Z</time>
      </trkpt>
      <trkpt lat="48.72225" lon="2.05408">
        <ele>130.2</ele>
        <time>2021-12-16T09:01:30Z</time>
      </trkpt>
      <trkpt lat="48.72239" lon="2.0539">
        <ele>127.8</ele>
        <time>2021-12-16T09:01:43Z</time>
      </trkpt>
      <trkpt lat="48.72252" lon="2.05369">
        <ele>127</ele>
        <time>2021-12-16T09:01:57Z</time>
      </trkpt>
      <trkpt lat="48.72264" lon="2.05347">
        <ele>126.2</ele>
        <time>2021-12-16T09:02:12Z</time>
      </trkpt>
      <trkpt lat="48.72278" lon="2.05329">
        <ele>124.5</ele>
        <time>2021-12-16T09:02:25Z</time>
      </trkpt>
      <trkpt lat="48.72289" lon="2.05307">
        <ele>124.5</ele>
        <time>2021-12-16T09:02:40Z</time>
      </trkpt>
      <trkpt lat="48.72301" lon="2.05283">
        <ele>125.3</ele>
        <time>2021-12-16T09:02:56Z</time>
      </trkpt>
      <trkpt lat="48.72315" lon="2.05263">
        <ele>123.5</ele>
        <time>2021-12-16T09:03:10Z</time>
      </trkpt>
      <trkpt lat="48.72329" lon="2.05246">
        <ele>119.1</ele>
        <time>2021-12-16T09:03:25Z</time>
      </trkpt>
      <trkpt lat="48.72331" lon="2.05219">
        <ele>120</ele>
        <time>2021-12-16T09:03:42Z</time>
      </trkpt>
      <trkpt lat="48.72329" lon="2.0519">
        <ele>121.1</ele>
        <time>2021-12-16T09:03:57Z</time>
      </trkpt>
      <trkpt lat="48.72331" lon="2.05162">
        <ele>120.8</ele>
        <time>2021-12-16T09:04:13Z</time>
      </trkpt>
      <trkpt lat="48.72331" lon="2.05135">
        <ele>119.8</ele>
        <time>2021-12-16T09:04:26Z</time>
      </trkpt>
      <trkpt lat="48.72325" lon="2.05107">
        <ele>120.4</ele>
        <time>2021-12-16T09:04:40Z</time>
      </trkpt>
      <trkpt lat="48.72323" lon="2.05078">
        <ele>119.6</ele>
        <time>2021-12-16T09:04:55Z</time>
      </trkpt>
      <trkpt lat="48.72315" lon="2.05053">
        <ele>120.2</ele>
        <time>2021-12-16T09:05:08Z</time>
      </trkpt>
      <trkpt lat="48.72308" lon="2.05026">
        <ele>120.3</ele>
        <time>2021-12-16T09:05:21Z</time>
      </trkpt>
      <trkpt lat="48.72298" lon="2.05002">
        <ele>119.8</ele>
        <time>2021-12-16T09:05:39Z</time>
      </trkpt>
      <trkpt lat="48.72285" lon="2.04983">
        <ele>120.2</ele>
        <time>2021-12-16T09:05:52Z</time>
      </trkpt>
      <trkpt lat="48.72272" lon="2.04964">
        <ele>120.7</ele>
        <time>2021-12-16T09:06:05Z</time>
      </trkpt>
      <trkpt lat="48.72258" lon="2.04946">
        <ele>122.4</ele>
        <time>2021-12-16T09:06:22Z</time>
      </trkpt>
      <trkpt lat="48.72246" lon="2.04925">
        <ele>125.2</ele>
        <time>2021-12-16T09:06:35Z</time>
      </trkpt>
      <trkpt lat="48.72237" lon="2.04901">
        <ele>129.8</ele>
        <time>2021-12-16T09:06:53Z</time>
      </trkpt>
      <trkpt lat="48.72245" lon="2.04875">
        <ele>129.9</ele>
        <time>2021-12-16T09:07:08Z</time>
      </trkpt>
      <trkpt lat="48.72261" lon="2.04861">
        <ele>127.4</ele>
        <time>2021-12-16T09:07:27Z</time>
      </trkpt>
      <trkpt lat="48.72263" lon="2.04833">
        <ele>127.7</ele>
        <time>2021-12-16T09:09:17Z</time>
      </trkpt>
      <trkpt lat="48.72258" lon="2.04805">
        <ele>127.9</ele>
        <time>2021-12-16T09:09:31Z</time>
      </trkpt>
      <trkpt lat="48.72247" lon="2.04781">
        <ele>127.6</ele>
        <time>2021-12-16T09:09:46Z</time>
      </trkpt>
      <trkpt lat="48.72244" lon="2.04752">
        <ele>125.8</ele>
        <time>2021-12-16T09:10:04Z</time>
      </trkpt>
      <trkpt lat="48.72235" lon="2.04726">
        <ele>124.8</ele>
        <time>2021-12-16T09:10:23Z</time>
      </trkpt>
      <trkpt lat="48.72221" lon="2.04708">
        <ele>125.7</ele>
        <time>2021-12-16T09:10:37Z</time>
      </trkpt>
      <trkpt lat="48.72217" lon="2.04681">
        <ele>126.1</ele>
        <time>2021-12-16T09:11:07Z</time>
      </trkpt>
      <trkpt lat="48.72208" lon="2.04656">
        <ele>128.2</ele>
        <time>2021-12-16T09:11:24Z</time>
      </trkpt>
      <trkpt lat="48.72204" lon="2.04628">
        <ele>131</ele>
        <time>2021-12-16T09:11:40Z</time>
      </trkpt>
      <trkpt lat="48.72209" lon="2.046">
        <ele>131.8</ele>
        <time>2021-12-16T09:11:54Z</time>
      </trkpt>
      <trkpt lat="48.72206" lon="2.04571">
        <ele>131.8</ele>
        <time>2021-12-16T09:17:03Z</time>
      </trkpt>
      <trkpt lat="48.72197" lon="2.04547">
        <ele>132.2</ele>
        <time>2021-12-16T09:17:16Z</time>
      </trkpt>
      <trkpt lat="48.72187" lon="2.04524">
        <ele>132.3</ele>
        <time>2021-12-16T09:17:34Z</time>
      </trkpt>
      <trkpt lat="48.72179" lon="2.04499">
        <ele>133.8</ele>
        <time>2021-12-16T09:17:53Z</time>
      </trkpt>
      <trkpt lat="48.72179" lon="2.0447">
        <ele>136.3</ele>
        <time>2021-12-16T09:18:16Z</time>
      </trkpt>
      <trkpt lat="48.72193" lon="2.04451">
        <ele>134.9</ele>
        <time>2021-12-16T09:18:29Z</time>
      </trkpt>
      <trkpt lat="48.72212" lon="2.04456">
        <ele>131.3</ele>
        <time>2021-12-16T09:18:52Z</time>
      </trkpt>
      <trkpt lat="48.72229" lon="2.04464">
        <ele>127</ele>
        <time>2021-12-16T09:19:05Z</time>
      </trkpt>
      <trkpt lat="48.72247" lon="2.04458">
        <ele>124.9</ele>
        <time>2021-12-16T09:19:18Z</time>
      </trkpt>
      <trkpt lat="48.72261" lon="2.04439">
        <ele>125.9</ele>
        <time>2021-12-16T09:19:34Z</time>
      </trkpt>
      <trkpt lat="48.72277" lon="2.04425">
        <ele>125.7</ele>
        <time>2021-12-16T09:19:49Z</time>
      </trkpt>
      <trkpt lat="48.72293" lon="2.04411">
        <ele>125.7</ele>
        <time>2021-12-16T09:20:19Z</time>
      </trkpt>
      <trkpt lat="48.72311" lon="2.04407">
        <ele>124</ele>
        <time>2021-12-16T09:20:35Z</time>
      </trkpt>
      <trkpt lat="48.7233" lon="2.04399">
        <ele>123</ele>
        <time>2021-12-16T09:20:47Z</time>
      </trkpt>
      <trkpt lat="48.72347" lon="2.04386">
        <ele>121.1</ele>
        <time>2021-12-16T09:20:59Z</time>
      </trkpt>
      <trkpt lat="48.72361" lon="2.04368">
        <ele>118.2</ele>
        <time>2021-12-16T09:21:10Z</time>
      </trkpt>
      <trkpt lat="48.72371" lon="2.04345">
        <ele>116.2</ele>
        <time>2021-12-16T09:21:23Z</time>
      </trkpt>
      <trkpt lat="48.72376" lon="2.04318">
        <ele>115.9</ele>
        <time>2021-12-16T09:22:40Z</time>
      </trkpt>
      <trkpt lat="48.72386" lon="2.04296">
        <ele>115.1</ele>
        <time>2021-12-16T09:22:53Z</time>
      </trkpt>
      <trkpt lat="48.72395" lon="2.0427">
        <ele>115.7</ele>
        <time>2021-12-16T09:23:06Z</time>
      </trkpt>
      <trkpt lat="48.72407" lon="2.04251">
        <ele>115.3</ele>
        <time>2021-12-16T09:23:20Z</time>
      </trkpt>
      <trkpt lat="48.72424" lon="2.04239">
        <ele>113.7</ele>
        <time>2021-12-16T09:23:33Z</time>
      </trkpt>
      <trkpt lat="48.7244" lon="2.04225">
        <ele>112.4</ele>
        <time>2021-12-16T09:23:47Z</time>
      </trkpt>
      <trkpt lat="48.72457" lon="2.04215">
        <ele>110.9</ele>
        <time>2021-12-16T09:24:00Z</time>
      </trkpt>
      <trkpt lat="48.72468" lon="2.04193">
        <ele>111.8</ele>
        <time>2021-12-16T09:24:13Z</time>
      </trkpt>
      <trkpt lat="48.72476" lon="2.04168">
        <ele>113.1</ele>
        <time>2021-12-16T09:24:25Z</time>
      </trkpt>
      <trkpt lat="48.72493" lon="2.04154">
        <ele>111.7</ele>
        <time>2021-12-16T09:24:40Z</time>
      </trkpt>
      <trkpt lat="48.72508" lon="2.04138">
        <ele>111.2</ele>
        <time>2021-12-16T09:24:54Z</time>
      </trkpt>
      <trkpt lat="48.72524" lon="2.04125">
        <ele>110.4</ele>
        <time>2021-12-16T09:25:21Z</time>
      </trkpt>
      <trkpt lat="48.72535" lon="2.04102">
        <ele>110.5</ele>
        <time>2021-12-16T09:26:04Z</time>
      </trkpt>
      <trkpt lat="48.72537" lon="2.04075">
        <ele>110.9</ele>
        <time>2021-12-16T09:26:24Z</time>
      </trkpt>
      <trkpt lat="48.72549" lon="2.04054">
        <ele>110.9</ele>
        <time>2021-12-16T09:26:39Z</time>
      </trkpt>
      <trkpt lat="48.72563" lon="2.04038">
        <ele>110.3</ele>
        <time>2021-12-16T09:26:52Z</time>
      </trkpt>
      <trkpt lat="48.72577" lon="2.0402">
        <ele>109.3</ele>
        <time>2021-12-16T09:27:05Z</time>
      </trkpt>
      <trkpt lat="48.72592" lon="2.04003">
        <ele>107.3</ele>
        <time>2021-12-16T09:27:19Z</time>
      </trkpt>
      <trkpt lat="48.72606" lon="2.03985">
        <ele>106.1</ele>
        <time>2021-12-16T09:27:32Z</time>
      </trkpt>
      <trkpt lat="48.72616" lon="2.0396">
        <ele>106.3</ele>
        <time>2021-12-16T09:27:45Z</time>
      </trkpt>
      <trkpt lat="48.72615" lon="2.03932">
        <ele>108.8</ele>
        <time>2021-12-16T09:27:56Z</time>
      </trkpt>
      <trkpt lat="48.72611" lon="2.03905">
        <ele>111.8</ele>
        <time>2021-12-16T09:28:06Z</time>
      </trkpt>
      <trkpt lat="48.72606" lon="2.03877">
        <ele>113.9</ele>
        <time>2021-12-16T09:28:18Z</time>
      </trkpt>
      <trkpt lat="48.72597" lon="2.03852">
        <ele>115.8</ele>
        <time>2021-12-16T09:28:29Z</time>
      </trkpt>
      <trkpt lat="48.726" lon="2.03824">
        <ele>116.3</ele>
        <time>2021-12-16T09:28:46Z</time>
      </trkpt>
      <trkpt lat="48.72613" lon="2.03844">
        <ele>114.4</ele>
        <time>2021-12-16T09:31:50Z</time>
      </trkpt>
      <trkpt lat="48.72627" lon="2.03863">
        <ele>111.6</ele>
        <time>2021-12-16T09:32:03Z</time>
      </trkpt>
      <trkpt lat="48.72641" lon="2.03881">
        <ele>109</ele>
        <time>2021-12-16T09:32:17Z</time>
      </trkpt>
      <trkpt lat="48.72657" lon="2.03897">
        <ele>106.1</ele>
        <time>2021-12-16T09:32:31Z</time>
      </trkpt>
      <trkpt lat="48.72666" lon="2.03922">
        <ele>103.7</ele>
        <time>2021-12-16T09:32:46Z</time>
      </trkpt>
      <trkpt lat="48.72679" lon="2.03942">
        <ele>100.8</ele>
        <time>2021-12-16T09:32:59Z</time>
      </trkpt>
      <trkpt lat="48.7269" lon="2.03966">
        <ele>97.9</ele>
        <time>2021-12-16T09:33:21Z</time>
      </trkpt>
      <trkpt lat="48.7269" lon="2.03995">
        <ele>96.5</ele>
        <time>2021-12-16T09:33:34Z</time>
      </trkpt>
      <trkpt lat="48.72687" lon="2.04024">
        <ele>95.7</ele>
        <time>2021-12-16T09:33:47Z</time>
      </trkpt>
      <trkpt lat="48.7268" lon="2.04049">
        <ele>95.3</ele>
        <time>2021-12-16T09:34:00Z</time>
      </trkpt>
      <trkpt lat="48.72673" lon="2.04075">
        <ele>96</ele>
        <time>2021-12-16T09:34:13Z</time>
      </trkpt>
      <trkpt lat="48.72679" lon="2.04102">
        <ele>95.6</ele>
        <time>2021-12-16T09:34:58Z</time>
      </trkpt>
      <trkpt lat="48.72695" lon="2.04116">
        <ele>93.9</ele>
        <time>2021-12-16T09:35:15Z</time>
      </trkpt>
      <trkpt lat="48.72712" lon="2.04131">
        <ele>92.7</ele>
        <time>2021-12-16T09:35:28Z</time>
      </trkpt>
      <trkpt lat="48.72727" lon="2.04146">
        <ele>91.8</ele>
        <time>2021-12-16T09:35:42Z</time>
      </trkpt>
      <trkpt lat="48.72745" lon="2.04155">
        <ele>91.2</ele>
        <time>2021-12-16T09:35:52Z</time>
      </trkpt>
      <trkpt lat="48.72761" lon="2.04167">
        <ele>91.4</ele>
        <time>2021-12-16T09:36:03Z</time>
      </trkpt>
      <trkpt lat="48.72778" lon="2.04181">
        <ele>92</ele>
        <time>2021-12-16T09:36:15Z</time>
      </trkpt>
      <trkpt lat="48.72795" lon="2.04192">
        <ele>93.2</ele>
        <time>2021-12-16T09:36:29Z</time>
      </trkpt>
      <trkpt lat="48.72812" lon="2.04205">
        <ele>94.8</ele>
        <time>2021-12-16T09:36:42Z</time>
      </trkpt>
      <trkpt lat="48.72829" lon="2.04218">
        <ele>96.5</ele>
        <time>2021-12-16T09:36:57Z</time>
      </trkpt>
      <trkpt lat="48.72844" lon="2.04232">
        <ele>98.1</ele>
        <time>2021-12-16T09:37:11Z</time>
      </trkpt>
      <trkpt lat="48.72861" lon="2.04245">
        <ele>99.8</ele>
        <time>2021-12-16T09:37:24Z</time>
      </trkpt>
      <trkpt lat="48.72878" lon="2.04257">
        <ele>104.2</ele>
        <time>2021-12-16T09:37:38Z</time>
      </trkpt>
      <trkpt lat="48.72884" lon="2.04229">
        <ele>103.6</ele>
        <time>2021-12-16T09:38:02Z</time>
      </trkpt>
      <trkpt lat="48.72882" lon="2.04202">
        <ele>101.5</ele>
        <time>2021-12-16T09:38:57Z</time>
      </trkpt>
      <trkpt lat="48.7288" lon="2.04174">
        <ele>100.7</ele>
        <time>2021-12-16T09:39:11Z</time>
      </trkpt>
      <trkpt lat="48.72876" lon="2.04146">
        <ele>100.2</ele>
        <time>2021-12-16T09:39:24Z</time>
      </trkpt>
      <trkpt lat="48.72874" lon="2.04119">
        <ele>99.9</ele>
        <time>2021-12-16T09:39:37Z</time>
      </trkpt>
      <trkpt lat="48.72872" lon="2.04091">
        <ele>99.9</ele>
        <time>2021-12-16T09:39:50Z</time>
      </trkpt>
      <trkpt lat="48.72873" lon="2.04064">
        <ele>100.2</ele>
        <time>2021-12-16T09:40:04Z</time>
      </trkpt>
      <trkpt lat="48.72874" lon="2.04034">
        <ele>99.6</ele>
        <time>2021-12-16T09:40:16Z</time>
      </trkpt>
      <trkpt lat="48.72877" lon="2.04006">
        <ele>99</ele>
        <time>2021-12-16T09:40:27Z</time>
      </trkpt>
      <trkpt lat="48.72884" lon="2.03981">
        <ele>98.9</ele>
        <time>2021-12-16T09:40:41Z</time>
      </trkpt>
      <trkpt lat="48.72895" lon="2.03959">
        <ele>98.8</ele>
        <time>2021-12-16T09:40:57Z</time>
      </trkpt>
      <trkpt lat="48.72903" lon="2.03932">
        <ele>98.1</ele>
        <time>2021-12-16T09:41:09Z</time>
      </trkpt>
      <trkpt lat="48.72915" lon="2.03909">
        <ele>98.8</ele>
        <time>2021-12-16T09:41:23Z</time>
      </trkpt>
      <trkpt lat="48.72924" lon="2.03884">
        <ele>100</ele>
        <time>2021-12-16T09:41:37Z</time>
      </trkpt>
      <trkpt lat="48.72932" lon="2.0386">
        <ele>100.8</ele>
        <time>2021-12-16T09:41:51Z</time>
      </trkpt>
      <trkpt lat="48.72939" lon="2.03833">
        <ele>101.2</ele>
        <time>2021-12-16T09:42:03Z</time>
      </trkpt>
      <trkpt lat="48.72943" lon="2.03805">
        <ele>101.7</ele>
        <time>2021-12-16T09:42:14Z</time>
      </trkpt>
      <trkpt lat="48.72945" lon="2.03777">
        <ele>102.2</ele>
        <time>2021-12-16T09:42:26Z</time>
      </trkpt>
      <trkpt lat="48.7295" lon="2.0375">
        <ele>103.2</ele>
        <time>2021-12-16T09:42:37Z</time>
      </trkpt>
      <trkpt lat="48.72953" lon="2.03721">
        <ele>103.7</ele>
        <time>2021-12-16T09:42:49Z</time>
      </trkpt>
      <trkpt lat="48.72953" lon="2.03692">
        <ele>102.6</ele>
        <time>2021-12-16T09:43:01Z</time>
      </trkpt>
      <trkpt lat="48.72952" lon="2.03662">
        <ele>101.9</ele>
        <time>2021-12-16T09:43:12Z</time>
      </trkpt>
      <trkpt lat="48.72947" lon="2.03633">
        <ele>100.1</ele>
        <time>2021-12-16T09:43:24Z</time>
      </trkpt>
      <trkpt lat="48.72937" lon="2.03609">
        <ele>98.4</ele>
        <time>2021-12-16T09:43:35Z</time>
      </trkpt>
      <trkpt lat="48.72924" lon="2.03588">
        <ele>97.3</ele>
        <time>2021-12-16T09:43:48Z</time>
      </trkpt>
      <trkpt lat="48.7292" lon="2.0356">
        <ele>96.4</ele>
        <time>2021-12-16T09:44:03Z</time>
      </trkpt>
      <trkpt lat="48.72924" lon="2.03532">
        <ele>96.3</ele>
        <time>2021-12-16T09:44:19Z</time>
      </trkpt>
      <trkpt lat="48.7293" lon="2.03506">
        <ele>96.9</ele>
        <time>2021-12-16T09:44:32Z</time>
      </trkpt>
      <trkpt lat="48.72935" lon="2.03479">
        <ele>97.6</ele>
        <time>2021-12-16T09:44:46Z</time>
      </trkpt>
      <trkpt lat="48.7294" lon="2.03452">
        <ele>98.5</ele>
        <time>2021-12-16T09:44:59Z</time>
      </trkpt>
      <trkpt lat="48.72945" lon="2.03426">
        <ele>99.1</ele>
        <time>2021-12-16T09:45:10Z</time>
      </trkpt>
      <trkpt lat="48.72951" lon="2.03398">
        <ele>100.2</ele>
        <time>2021-12-16T09:45:23Z</time>
      </trkpt>
      <trkpt lat="48.72957" lon="2.03371">
        <ele>100.6</ele>
        <time>2021-12-16T09:45:34Z</time>
      </trkpt>
      <trkpt lat="48.72962" lon="2.03344">
        <ele>100.9</ele>
        <time>2021-12-16T09:45:45Z</time>
      </trkpt>
      <trkpt lat="48.72956" lon="2.03318">
        <ele>100.3</ele>
        <time>2021-12-16T09:45:56Z</time>
      </trkpt>
      <trkpt lat="48.72945" lon="2.03293">
        <ele>99.5</ele>
        <time>2021-12-16T09:46:07Z</time>
      </trkpt>
      <trkpt lat="48.72936" lon="2.03268">
        <ele>99.6</ele>
        <time>2021-12-16T09:46:20Z</time>
      </trkpt>
      <trkpt lat="48.72927" lon="2.03243">
        <ele>99.3</ele>
        <time>2021-12-16T09:46:33Z</time>
      </trkpt>
      <trkpt lat="48.72923" lon="2.03214">
        <ele>100.1</ele>
        <time>2021-12-16T09:46:47Z</time>
      </trkpt>
      <trkpt lat="48.72923" lon="2.03185">
        <ele>100.9</ele>
        <time>2021-12-16T09:47:01Z</time>
      </trkpt>
      <trkpt lat="48.72922" lon="2.03156">
        <ele>101.1</ele>
        <time>2021-12-16T09:47:13Z</time>
      </trkpt>
      <trkpt lat="48.72924" lon="2.03129">
        <ele>101.5</ele>
        <time>2021-12-16T09:47:25Z</time>
      </trkpt>
      <trkpt lat="48.72928" lon="2.03102">
        <ele>102.3</ele>
        <time>2021-12-16T09:47:39Z</time>
      </trkpt>
      <trkpt lat="48.7293" lon="2.03073">
        <ele>102.1</ele>
        <time>2021-12-16T09:47:52Z</time>
      </trkpt>
      <trkpt lat="48.72933" lon="2.03045">
        <ele>101.8</ele>
        <time>2021-12-16T09:48:06Z</time>
      </trkpt>
      <trkpt lat="48.72934" lon="2.03016">
        <ele>100.6</ele>
        <time>2021-12-16T09:48:18Z</time>
      </trkpt>
      <trkpt lat="48.72933" lon="2.02987">
        <ele>99.4</ele>
        <time>2021-12-16T09:48:31Z</time>
      </trkpt>
      <trkpt lat="48.72934" lon="2.02958">
        <ele>99.3</ele>
        <time>2021-12-16T09:48:42Z</time>
      </trkpt>
      <trkpt lat="48.72935" lon="2.0293">
        <ele>99.6</ele>
        <time>2021-12-16T09:48:53Z</time>
      </trkpt>
      <trkpt lat="48.72933" lon="2.02902">
        <ele>100.1</ele>
        <time>2021-12-16T09:49:05Z</time>
      </trkpt>
      <trkpt lat="48.72934" lon="2.02872">
        <ele>100.1</ele>
        <time>2021-12-16T09:49:18Z</time>
      </trkpt>
      <trkpt lat="48.72945" lon="2.0285">
        <ele>100.6</ele>
        <time>2021-12-16T09:49:33Z</time>
      </trkpt>
      <trkpt lat="48.72961" lon="2.02837">
        <ele>102.6</ele>
        <time>2021-12-16T09:50:10Z</time>
      </trkpt>
      <trkpt lat="48.72953" lon="2.02813">
        <ele>100.3</ele>
        <time>2021-12-16T09:52:57Z</time>
      </trkpt>
      <trkpt lat="48.72949" lon="2.02784">
        <ele>98.6</ele>
        <time>2021-12-16T09:53:11Z</time>
      </trkpt>
      <trkpt lat="48.72936" lon="2.02765">
        <ele>97.7</ele>
        <time>2021-12-16T09:53:23Z</time>
      </trkpt>
      <trkpt lat="48.7292" lon="2.02752">
        <ele>97.1</ele>
        <time>2021-12-16T09:53:37Z</time>
      </trkpt>
      <trkpt lat="48.72903" lon="2.02736">
        <ele>97.5</ele>
        <time>2021-12-16T09:53:49Z</time>
      </trkpt>
      <trkpt lat="48.72887" lon="2.02721">
        <ele>98.1</ele>
        <time>2021-12-16T09:54:01Z</time>
      </trkpt>
      <trkpt lat="48.72872" lon="2.02705">
        <ele>99.2</ele>
        <time>2021-12-16T09:54:16Z</time>
      </trkpt>
      <trkpt lat="48.72856" lon="2.02689">
        <ele>100.2</ele>
        <time>2021-12-16T09:54:37Z</time>
      </trkpt>
      <trkpt lat="48.72841" lon="2.02672">
        <ele>100.8</ele>
        <time>2021-12-16T09:54:50Z</time>
      </trkpt>
      <trkpt lat="48.72826" lon="2.02656">
        <ele>101.4</ele>
        <time>2021-12-16T09:55:03Z</time>
      </trkpt>
      <trkpt lat="48.72809" lon="2.0264">
        <ele>101.9</ele>
        <time>2021-12-16T09:55:16Z</time>
      </trkpt>
      <trkpt lat="48.72795" lon="2.02623">
        <ele>102.7</ele>
        <time>2021-12-16T09:55:28Z</time>
      </trkpt>
      <trkpt lat="48.72778" lon="2.02608">
        <ele>103.1</ele>
        <time>2021-12-16T09:55:41Z</time>
      </trkpt>
      <trkpt lat="48.72762" lon="2.02592">
        <ele>104.2</ele>
        <time>2021-12-16T09:55:54Z</time>
      </trkpt>
      <trkpt lat="48.72747" lon="2.02575">
        <ele>105.1</ele>
        <time>2021-12-16T09:56:08Z</time>
      </trkpt>
      <trkpt lat="48.72731" lon="2.0256">
        <ele>105.7</ele>
        <time>2021-12-16T09:56:23Z</time>
      </trkpt>
      <trkpt lat="48.72719" lon="2.0254">
        <ele>106.9</ele>
        <time>2021-12-16T09:56:50Z</time>
      </trkpt>
      <trkpt lat="48.72701" lon="2.02547">
        <ele>108.4</ele>
        <time>2021-12-16T09:57:06Z</time>
      </trkpt>
      <trkpt lat="48.72685" lon="2.02562">
        <ele>109.9</ele>
        <time>2021-12-16T09:57:21Z</time>
      </trkpt>
      <trkpt lat="48.72672" lon="2.02581">
        <ele>110.7</ele>
        <time>2021-12-16T09:57:35Z</time>
      </trkpt>
      <trkpt lat="48.72657" lon="2.02599">
        <ele>111.3</ele>
        <time>2021-12-16T09:57:47Z</time>
      </trkpt>
      <trkpt lat="48.72641" lon="2.02615">
        <ele>111.6</ele>
        <time>2021-12-16T09:57:58Z</time>
      </trkpt>
      <trkpt lat="48.72623" lon="2.02624">
        <ele>112</ele>
        <time>2021-12-16T09:58:11Z</time>
      </trkpt>
      <trkpt lat="48.72606" lon="2.02636">
        <ele>111.7</ele>
        <time>2021-12-16T09:58:25Z</time>
      </trkpt>
      <trkpt lat="48.7259" lon="2.02647">
        <ele>112</ele>
        <time>2021-12-16T09:58:37Z</time>
      </trkpt>
      <trkpt lat="48.72572" lon="2.02656">
        <ele>113.1</ele>
        <time>2021-12-16T09:58:51Z</time>
      </trkpt>
      <trkpt lat="48.72557" lon="2.0267">
        <ele>113.6</ele>
        <time>2021-12-16T09:59:02Z</time>
      </trkpt>
      <trkpt lat="48.7254" lon="2.02679">
        <ele>114.6</ele>
        <time>2021-12-16T09:59:15Z</time>
      </trkpt>
      <trkpt lat="48.7252" lon="2.02683">
        <ele>116.1</ele>
        <time>2021-12-16T09:59:30Z</time>
      </trkpt>
      <trkpt lat="48.72502" lon="2.02692">
        <ele>116.4</ele>
        <time>2021-12-16T09:59:42Z</time>
      </trkpt>
      <trkpt lat="48.72485" lon="2.027">
        <ele>116.4</ele>
        <time>2021-12-16T09:59:54Z</time>
      </trkpt>
      <trkpt lat="48.72466" lon="2.027">
        <ele>117.8</ele>
        <time>2021-12-16T10:00:09Z</time>
      </trkpt>
      <trkpt lat="48.7245" lon="2.02715">
        <ele>117.4</ele>
        <time>2021-12-16T10:00:20Z</time>
      </trkpt>
      <trkpt lat="48.72434" lon="2.0273">
        <ele>118.3</ele>
        <time>2021-12-16T10:00:33Z</time>
      </trkpt>
      <trkpt lat="48.72418" lon="2.02745">
        <ele>120</ele>
        <time>2021-12-16T10:00:45Z</time>
      </trkpt>
      <trkpt lat="48.72403" lon="2.02761">
        <ele>122.1</ele>
        <time>2021-12-16T10:00:59Z</time>
      </trkpt>
      <trkpt lat="48.72389" lon="2.02779">
        <ele>123.1</ele>
        <time>2021-12-16T10:01:13Z</time>
      </trkpt>
      <trkpt lat="48.72377" lon="2.02802">
        <ele>125.2</ele>
        <time>2021-12-16T10:01:26Z</time>
      </trkpt>
      <trkpt lat="48.72385" lon="2.02828">
        <ele>125.2</ele>
        <time>2021-12-16T10:02:26Z</time>
      </trkpt>
      <trkpt lat="48.72398" lon="2.02847">
        <ele>125.2</ele>
        <time>2021-12-16T10:02:42Z</time>
      </trkpt>
      <trkpt lat="48.72405" lon="2.02874">
        <ele>127.1</ele>
        <time>2021-12-16T10:03:16Z</time>
      </trkpt>
      <trkpt lat="48.72422" lon="2.02887">
        <ele>126.1</ele>
        <time>2021-12-16T10:03:25Z</time>
      </trkpt>
      <trkpt lat="48.72439" lon="2.02899">
        <ele>124.7</ele>
        <time>2021-12-16T10:03:36Z</time>
      </trkpt>
      <trkpt lat="48.72439" lon="2.02927">
        <ele>126.7</ele>
        <time>2021-12-16T10:03:54Z</time>
      </trkpt>
      <trkpt lat="48.72438" lon="2.02955">
        <ele>128.6</ele>
        <time>2021-12-16T10:04:07Z</time>
      </trkpt>
      <trkpt lat="48.72439" lon="2.02983">
        <ele>130</ele>
        <time>2021-12-16T10:04:20Z</time>
      </trkpt>
      <trkpt lat="48.72437" lon="2.03011">
        <ele>132.5</ele>
        <time>2021-12-16T10:04:33Z</time>
      </trkpt>
      <trkpt lat="48.72432" lon="2.0304">
        <ele>135.9</ele>
        <time>2021-12-16T10:04:47Z</time>
      </trkpt>
      <trkpt lat="48.72429" lon="2.03067">
        <ele>138.4</ele>
        <time>2021-12-16T10:05:02Z</time>
      </trkpt>
      <trkpt lat="48.72434" lon="2.03095">
        <ele>139.5</ele>
        <time>2021-12-16T10:07:07Z</time>
      </trkpt>
      <trkpt lat="48.72449" lon="2.03109">
        <ele>138.8</ele>
        <time>2021-12-16T10:07:22Z</time>
      </trkpt>
      <trkpt lat="48.72443" lon="2.03135">
        <ele>138.4</ele>
        <time>2021-12-16T10:07:35Z</time>
      </trkpt>
      <trkpt lat="48.72451" lon="2.03162">
        <ele>135.9</ele>
        <time>2021-12-16T10:07:46Z</time>
      </trkpt>
      <trkpt lat="48.72457" lon="2.03189">
        <ele>133.3</ele>
        <time>2021-12-16T10:08:00Z</time>
      </trkpt>
      <trkpt lat="48.72464" lon="2.03215">
        <ele>131.6</ele>
        <time>2021-12-16T10:08:14Z</time>
      </trkpt>
      <trkpt lat="48.72481" lon="2.03223">
        <ele>126.9</ele>
        <time>2021-12-16T10:08:22Z</time>
      </trkpt>
      <trkpt lat="48.72495" lon="2.03246">
        <ele>127.3</ele>
        <time>2021-12-16T10:08:36Z</time>
      </trkpt>
      <trkpt lat="48.72507" lon="2.03268">
        <ele>129.6</ele>
        <time>2021-12-16T10:08:50Z</time>
      </trkpt>
      <trkpt lat="48.72518" lon="2.03293">
        <ele>132.4</ele>
        <time>2021-12-16T10:09:06Z</time>
      </trkpt>
      <trkpt lat="48.72536" lon="2.03305">
        <ele>131.2</ele>
        <time>2021-12-16T10:09:17Z</time>
      </trkpt>
      <trkpt lat="48.7252" lon="2.03321">
        <ele>136.5</ele>
        <time>2021-12-16T10:10:46Z</time>
      </trkpt>
      <trkpt lat="48.72504" lon="2.03335">
        <ele>140.4</ele>
        <time>2021-12-16T10:11:01Z</time>
      </trkpt>
      <trkpt lat="48.72486" lon="2.03337">
        <ele>143</ele>
        <time>2021-12-16T10:11:19Z</time>
      </trkpt>
      <trkpt lat="48.72467" lon="2.03336">
        <ele>145.4</ele>
        <time>2021-12-16T10:11:34Z</time>
      </trkpt>
      <trkpt lat="48.72449" lon="2.03337">
        <ele>147</ele>
        <time>2021-12-16T10:11:50Z</time>
      </trkpt>
      <trkpt lat="48.7243" lon="2.03333">
        <ele>149.5</ele>
        <time>2021-12-16T10:12:06Z</time>
      </trkpt>
      <trkpt lat="48.72413" lon="2.03324">
        <ele>151.8</ele>
        <time>2021-12-16T10:12:20Z</time>
      </trkpt>
      <trkpt lat="48.72395" lon="2.03321">
        <ele>154.1</ele>
        <time>2021-12-16T10:12:34Z</time>
      </trkpt>
      <trkpt lat="48.72384" lon="2.03299">
        <ele>156.6</ele>
        <time>2021-12-16T10:15:00Z</time>
      </trkpt>
      <trkpt lat="48.72371" lon="2.03279">
        <ele>158.2</ele>
        <time>2021-12-16T10:15:14Z</time>
      </trkpt>
      <trkpt lat="48.72358" lon="2.03258">
        <ele>159.1</ele>
        <time>2021-12-16T10:15:28Z</time>
      </trkpt>
      <trkpt lat="48.72346" lon="2.03238">
        <ele>159.8</ele>
        <time>2021-12-16T10:15:41Z</time>
      </trkpt>
      <trkpt lat="48.72334" lon="2.03215">
        <ele>161</ele>
        <time>2021-12-16T10:15:55Z</time>
      </trkpt>
      <trkpt lat="48.72324" lon="2.0319">
        <ele>160.9</ele>
        <time>2021-12-16T10:16:06Z</time>
      </trkpt>
      <trkpt lat="48.72315" lon="2.03165">
        <ele>160.6</ele>
        <time>2021-12-16T10:16:19Z</time>
      </trkpt>
      <trkpt lat="48.72303" lon="2.03145">
        <ele>161.1</ele>
        <time>2021-12-16T10:16:34Z</time>
      </trkpt>
      <trkpt lat="48.72287" lon="2.03129">
        <ele>161.7</ele>
        <time>2021-12-16T10:16:48Z</time>
      </trkpt>
      <trkpt lat="48.72272" lon="2.03113">
        <ele>162.2</ele>
        <time>2021-12-16T10:17:02Z</time>
      </trkpt>
      <trkpt lat="48.72261" lon="2.0309">
        <ele>162.6</ele>
        <time>2021-12-16T10:17:15Z</time>
      </trkpt>
      <trkpt lat="48.72249" lon="2.03068">
        <ele>163</ele>
        <time>2021-12-16T10:17:27Z</time>
      </trkpt>
      <trkpt lat="48.72234" lon="2.03049">
        <ele>162.9</ele>
        <time>2021-12-16T10:17:39Z</time>
      </trkpt>
      <trkpt lat="48.72221" lon="2.03028">
        <ele>163</ele>
        <time>2021-12-16T10:17:54Z</time>
      </trkpt>
      <trkpt lat="48.72213" lon="2.03001">
        <ele>162.7</ele>
        <time>2021-12-16T10:18:09Z</time>
      </trkpt>
      <trkpt lat="48.72207" lon="2.02974">
        <ele>163.1</ele>
        <time>2021-12-16T10:18:22Z</time>
      </trkpt>
      <trkpt lat="48.72201" lon="2.02948">
        <ele>163.3</ele>
        <time>2021-12-16T10:18:35Z</time>
      </trkpt>
      <trkpt lat="48.72188" lon="2.02928">
        <ele>164.2</ele>
        <time>2021-12-16T10:19:43Z</time>
      </trkpt>
      <trkpt lat="48.72169" lon="2.02929">
        <ele>164.9</ele>
        <time>2021-12-16T10:19:58Z</time>
      </trkpt>
      <trkpt lat="48.72151" lon="2.02937">
        <ele>165.5</ele>
        <time>2021-12-16T10:20:11Z</time>
      </trkpt>
      <trkpt lat="48.72133" lon="2.02943">
        <ele>166.2</ele>
        <time>2021-12-16T10:20:23Z</time>
      </trkpt>
      <trkpt lat="48.72114" lon="2.0295">
        <ele>166.9</ele>
        <time>2021-12-16T10:20:34Z</time>
      </trkpt>
      <trkpt lat="48.72096" lon="2.02955">
        <ele>167</ele>
        <time>2021-12-16T10:20:46Z</time>
      </trkpt>
      <trkpt lat="48.72078" lon="2.02961">
        <ele>167.2</ele>
        <time>2021-12-16T10:21:02Z</time>
      </trkpt>
      <trkpt lat="48.7206" lon="2.02969">
        <ele>167.8</ele>
        <time>2021-12-16T10:21:17Z</time>
      </trkpt>
      <trkpt lat="48.72042" lon="2.02971">
        <ele>168</ele>
        <time>2021-12-16T10:21:31Z</time>
      </trkpt>
      <trkpt lat="48.72023" lon="2.02976">
        <ele>168.2</ele>
        <time>2021-12-16T10:21:44Z</time>
      </trkpt>
      <trkpt lat="48.72005" lon="2.02982">
        <ele>168.5</ele>
        <time>2021-12-16T10:21:57Z</time>
      </trkpt>
      <trkpt lat="48.71986" lon="2.02981">
        <ele>168.7</ele>
        <time>2021-12-16T10:22:19Z</time>
      </trkpt>
      <trkpt lat="48.71967" lon="2.02985">
        <ele>168.6</ele>
        <time>2021-12-16T10:22:45Z</time>
      </trkpt>
      <trkpt lat="48.71949" lon="2.02988">
        <ele>168.9</ele>
        <time>2021-12-16T10:22:57Z</time>
      </trkpt>
      <trkpt lat="48.71931" lon="2.02991">
        <ele>169</ele>
        <time>2021-12-16T10:23:10Z</time>
      </trkpt>
      <trkpt lat="48.71913" lon="2.02997">
        <ele>169</ele>
        <time>2021-12-16T10:23:22Z</time>
      </trkpt>
      <trkpt lat="48.71894" lon="2.02996">
        <ele>169</ele>
        <time>2021-12-16T10:23:34Z</time>
      </trkpt>
      <trkpt lat="48.71875" lon="2.02996">
        <ele>169</ele>
        <time>2021-12-16T10:23:46Z</time>
      </trkpt>
      <trkpt lat="48.71856" lon="2.02997">
        <ele>169</ele>
        <time>2021-12-16T10:23:59Z</time>
      </trkpt>
      <trkpt lat="48.71838" lon="2.03">
        <ele>169</ele>
        <time>2021-12-16T10:24:12Z</time>
      </trkpt>
      <trkpt lat="48.71819" lon="2.03002">
        <ele>169</ele>
        <time>2021-12-16T10:24:25Z</time>
      </trkpt>
      <trkpt lat="48.71801" lon="2.03004">
        <ele>169</ele>
        <time>2021-12-16T10:25:25Z</time>
      </trkpt>
      <trkpt lat="48.71782" lon="2.03004">
        <ele>169</ele>
        <time>2021-12-16T10:25:47Z</time>
      </trkpt>
      <trkpt lat="48.71763" lon="2.03006">
        <ele>169</ele>
        <time>2021-12-16T10:26:01Z</time>
      </trkpt>
      <trkpt lat="48.71745" lon="2.03009">
        <ele>168.9</ele>
        <time>2021-12-16T10:26:14Z</time>
      </trkpt>
      <trkpt lat="48.71726" lon="2.03011">
        <ele>168.5</ele>
        <time>2021-12-16T10:26:27Z</time>
      </trkpt>
      <trkpt lat="48.71707" lon="2.03008">
        <ele>168.1</ele>
        <time>2021-12-16T10:26:40Z</time>
      </trkpt>
      <trkpt lat="48.71688" lon="2.0301">
        <ele>168</ele>
        <time>2021-12-16T10:26:53Z</time>
      </trkpt>
      <trkpt lat="48.71668" lon="2.03015">
        <ele>168</ele>
        <time>2021-12-16T10:27:11Z</time>
      </trkpt>
      <trkpt lat="48.7165" lon="2.03015">
        <ele>167.7</ele>
        <time>2021-12-16T10:27:24Z</time>
      </trkpt>
      <trkpt lat="48.71631" lon="2.03018">
        <ele>167.5</ele>
        <time>2021-12-16T10:27:36Z</time>
      </trkpt>
      <trkpt lat="48.71612" lon="2.0302">
        <ele>167</ele>
        <time>2021-12-16T10:27:47Z</time>
      </trkpt>
      <trkpt lat="48.71594" lon="2.03024">
        <ele>166.4</ele>
        <time>2021-12-16T10:27:59Z</time>
      </trkpt>
      <trkpt lat="48.71576" lon="2.0303">
        <ele>166.1</ele>
        <time>2021-12-16T10:28:12Z</time>
      </trkpt>
      <trkpt lat="48.71557" lon="2.03032">
        <ele>166</ele>
        <time>2021-12-16T10:28:24Z</time>
      </trkpt>
      <trkpt lat="48.71538" lon="2.03037">
        <ele>165.4</ele>
        <time>2021-12-16T10:28:36Z</time>
      </trkpt>
      <trkpt lat="48.71519" lon="2.03047">
        <ele>164.4</ele>
        <time>2021-12-16T10:28:48Z</time>
      </trkpt>
      <trkpt lat="48.71501" lon="2.03057">
        <ele>163.1</ele>
        <time>2021-12-16T10:29:17Z</time>
      </trkpt>
      <trkpt lat="48.71484" lon="2.03064">
        <ele>161.8</ele>
        <time>2021-12-16T10:29:32Z</time>
      </trkpt>
      <trkpt lat="48.71465" lon="2.03071">
        <ele>160.1</ele>
        <time>2021-12-16T10:29:45Z</time>
      </trkpt>
      <trkpt lat="48.71447" lon="2.0308">
        <ele>157.4</ele>
        <time>2021-12-16T10:29:57Z</time>
      </trkpt>
      <trkpt lat="48.71428" lon="2.03076">
        <ele>154.3</ele>
        <time>2021-12-16T10:30:09Z</time>
      </trkpt>
      <trkpt lat="48.7141" lon="2.03079">
        <ele>150.3</ele>
        <time>2021-12-16T10:30:21Z</time>
      </trkpt>
      <trkpt lat="48.71395" lon="2.03099">
        <ele>145.1</ele>
        <time>2021-12-16T10:30:36Z</time>
      </trkpt>
      <trkpt lat="48.71397" lon="2.03128">
        <ele>143.8</ele>
        <time>2021-12-16T10:30:59Z</time>
      </trkpt>
      <trkpt lat="48.71383" lon="2.03147">
        <ele>139</ele>
        <time>2021-12-16T10:31:17Z</time>
      </trkpt>
      <trkpt lat="48.71364" lon="2.03152">
        <ele>132.5</ele>
        <time>2021-12-16T10:31:29Z</time>
      </trkpt>
      <trkpt lat="48.71347" lon="2.03163">
        <ele>126.7</ele>
        <time>2021-12-16T10:32:11Z</time>
      </trkpt>
      <trkpt lat="48.71331" lon="2.03177">
        <ele>121.8</ele>
        <time>2021-12-16T10:32:24Z</time>
      </trkpt>
      <trkpt lat="48.71317" lon="2.03195">
        <ele>119</ele>
        <time>2021-12-16T10:32:38Z</time>
      </trkpt>
      <trkpt lat="48.71308" lon="2.03219">
        <ele>117.7</ele>
        <time>2021-12-16T10:32:53Z</time>
      </trkpt>
      <trkpt lat="48.713" lon="2.03244">
        <ele>116.1</ele>
        <time>2021-12-16T10:33:09Z</time>
      </trkpt>
      <trkpt lat="48.71289" lon="2.03267">
        <ele>112.8</ele>
        <time>2021-12-16T10:33:24Z</time>
      </trkpt>
      <trkpt lat="48.71276" lon="2.03288">
        <ele>109.8</ele>
        <time>2021-12-16T10:33:38Z</time>
      </trkpt>
      <trkpt lat="48.71266" lon="2.03313">
        <ele>107.9</ele>
        <time>2021-12-16T10:33:50Z</time>
      </trkpt>
      <trkpt lat="48.71269" lon="2.0334">
        <ele>108.5</ele>
        <time>2021-12-16T10:34:03Z</time>
      </trkpt>
      <trkpt lat="48.71259" lon="2.03364">
        <ele>106.6</ele>
        <time>2021-12-16T10:34:16Z</time>
      </trkpt>
      <trkpt lat="48.71245" lon="2.03383">
        <ele>104.7</ele>
        <time>2021-12-16T10:34:28Z</time>
      </trkpt>
      <trkpt lat="48.71227" lon="2.03389">
        <ele>101</ele>
        <time>2021-12-16T10:34:46Z</time>
      </trkpt>
      <trkpt lat="48.71209" lon="2.03393">
        <ele>99</ele>
        <time>2021-12-16T10:35:00Z</time>
      </trkpt>
      <trkpt lat="48.71191" lon="2.03386">
        <ele>97</ele>
        <time>2021-12-16T10:35:29Z</time>
      </trkpt>
      <trkpt lat="48.71172" lon="2.03391">
        <ele>97.4</ele>
        <time>2021-12-16T10:36:16Z</time>
      </trkpt>
      <trkpt lat="48.71154" lon="2.03399">
        <ele>98.3</ele>
        <time>2021-12-16T10:36:29Z</time>
      </trkpt>
      <trkpt lat="48.71137" lon="2.03409">
        <ele>98</ele>
        <time>2021-12-16T10:36:45Z</time>
      </trkpt>
      <trkpt lat="48.71119" lon="2.03422">
        <ele>97.5</ele>
        <time>2021-12-16T10:36:57Z</time>
      </trkpt>
      <trkpt lat="48.71103" lon="2.03435">
        <ele>96.9</ele>
        <time>2021-12-16T10:37:08Z</time>
      </trkpt>
      <trkpt lat="48.71088" lon="2.03451">
        <ele>96.5</ele>
        <time>2021-12-16T10:37:20Z</time>
      </trkpt>
      <trkpt lat="48.71072" lon="2.03466">
        <ele>95.4</ele>
        <time>2021-12-16T10:37:34Z</time>
      </trkpt>
      <trkpt lat="48.7106" lon="2.0349">
        <ele>95.8</ele>
        <time>2021-12-16T10:37:47Z</time>
      </trkpt>
      <trkpt lat="48.71047" lon="2.03511">
        <ele>95.5</ele>
        <time>2021-12-16T10:38:00Z</time>
      </trkpt>
      <trkpt lat="48.71034" lon="2.03532">
        <ele>94.7</ele>
        <time>2021-12-16T10:38:13Z</time>
      </trkpt>
      <trkpt lat="48.71027" lon="2.03558">
        <ele>95</ele>
        <time>2021-12-16T10:38:26Z</time>
      </trkpt>
      <trkpt lat="48.71021" lon="2.03585">
        <ele>95.2</ele>
        <time>2021-12-16T10:38:39Z</time>
      </trkpt>
      <trkpt lat="48.71016" lon="2.03611">
        <ele>95.7</ele>
        <time>2021-12-16T10:38:52Z</time>
      </trkpt>
      <trkpt lat="48.7101" lon="2.03639">
        <ele>96.1</ele>
        <time>2021-12-16T10:39:06Z</time>
      </trkpt>
      <trkpt lat="48.70999" lon="2.03662">
        <ele>94.9</ele>
        <time>2021-12-16T10:39:20Z</time>
      </trkpt>
      <trkpt lat="48.70991" lon="2.03686">
        <ele>94.2</ele>
        <time>2021-12-16T10:39:35Z</time>
      </trkpt>
      <trkpt lat="48.70979" lon="2.0371">
        <ele>93.5</ele>
        <time>2021-12-16T10:39:47Z</time>
      </trkpt>
      <trkpt lat="48.7097" lon="2.03733">
        <ele>92.8</ele>
        <time>2021-12-16T10:39:59Z</time>
      </trkpt>
      <trkpt lat="48.70958" lon="2.03757">
        <ele>91.7</ele>
        <time>2021-12-16T10:40:12Z</time>
      </trkpt>
      <trkpt lat="48.70947" lon="2.03779">
        <ele>91.3</ele>
        <time>2021-12-16T10:40:24Z</time>
      </trkpt>
      <trkpt lat="48.70936" lon="2.03804">
        <ele>91.1</ele>
        <time>2021-12-16T10:40:35Z</time>
      </trkpt>
      <trkpt lat="48.70926" lon="2.0378">
        <ele>89.1</ele>
        <time>2021-12-16T10:40:48Z</time>
      </trkpt>
      <trkpt lat="48.70915" lon="2.03758">
        <ele>87.1</ele>
        <time>2021-12-16T10:41:00Z</time>
      </trkpt>
      <trkpt lat="48.70908" lon="2.03732">
        <ele>86.4</ele>
        <time>2021-12-16T10:41:13Z</time>
      </trkpt>
      <trkpt lat="48.709" lon="2.03706">
        <ele>85.8</ele>
        <time>2021-12-16T10:41:26Z</time>
      </trkpt>
      <trkpt lat="48.70891" lon="2.03682">
        <ele>85.1</ele>
        <time>2021-12-16T10:41:41Z</time>
      </trkpt>
      <trkpt lat="48.70873" lon="2.03675">
        <ele>84.4</ele>
        <time>2021-12-16T10:41:57Z</time>
      </trkpt>
      <trkpt lat="48.70856" lon="2.03687">
        <ele>83.9</ele>
        <time>2021-12-16T10:42:23Z</time>
      </trkpt>
      <trkpt lat="48.7084" lon="2.03701">
        <ele>83.4</ele>
        <time>2021-12-16T10:42:36Z</time>
      </trkpt>
      <trkpt lat="48.70822" lon="2.03711">
        <ele>83.1</ele>
        <time>2021-12-16T10:42:50Z</time>
      </trkpt>
      <trkpt lat="48.70804" lon="2.03721">
        <ele>82.1</ele>
        <time>2021-12-16T10:43:04Z</time>
      </trkpt>
      <trkpt lat="48.70786" lon="2.03724">
        <ele>82.7</ele>
        <time>2021-12-16T10:43:18Z</time>
      </trkpt>
      <trkpt lat="48.70768" lon="2.03728">
        <ele>82.8</ele>
        <time>2021-12-16T10:43:32Z</time>
      </trkpt>
      <trkpt lat="48.7075" lon="2.03732">
        <ele>82.6</ele>
        <time>2021-12-16T10:43:49Z</time>
      </trkpt>
      <trkpt lat="48.70748" lon="2.03759">
        <ele>82</ele>
        <time>2021-12-16T10:44:33Z</time>
      </trkpt>
      <trkpt lat="48.70729" lon="2.03758">
        <ele>82</ele>
        <time>2021-12-16T10:44:51Z</time>
      </trkpt>
      <trkpt lat="48.70712" lon="2.03769">
        <ele>81.6</ele>
        <time>2021-12-16T10:45:06Z</time>
      </trkpt>
      <trkpt lat="48.70693" lon="2.03774">
        <ele>81</ele>
        <time>2021-12-16T10:45:19Z</time>
      </trkpt>
      <trkpt lat="48.70674" lon="2.03779">
        <ele>81</ele>
        <time>2021-12-16T10:45:35Z</time>
      </trkpt>
      <trkpt lat="48.70656" lon="2.03783">
        <ele>80.5</ele>
        <time>2021-12-16T10:45:51Z</time>
      </trkpt>
      <trkpt lat="48.70638" lon="2.0379">
        <ele>80</ele>
        <time>2021-12-16T10:46:07Z</time>
      </trkpt>
      <trkpt lat="48.7062" lon="2.03798">
        <ele>79.5</ele>
        <time>2021-12-16T10:46:38Z</time>
      </trkpt>
      <trkpt lat="48.70604" lon="2.03784">
        <ele>79.6</ele>
        <time>2021-12-16T10:47:02Z</time>
      </trkpt>
      <trkpt lat="48.70585" lon="2.03776">
        <ele>79.1</ele>
        <time>2021-12-16T10:47:17Z</time>
      </trkpt>
      <trkpt lat="48.70567" lon="2.03775">
        <ele>79.1</ele>
        <time>2021-12-16T10:47:32Z</time>
      </trkpt>
      <trkpt lat="48.70549" lon="2.0377">
        <ele>79.4</ele>
        <time>2021-12-16T10:47:46Z</time>
      </trkpt>
      <trkpt lat="48.70548" lon="2.03798">
        <ele>78.9</ele>
        <time>2021-12-16T10:48:00Z</time>
      </trkpt>
      <trkpt lat="48.70541" lon="2.03771">
        <ele>79.5</ele>
        <time>2021-12-16T10:48:19Z</time>
      </trkpt>
      <trkpt lat="48.70523" lon="2.03774">
        <ele>79.9</ele>
        <time>2021-12-16T10:48:34Z</time>
      </trkpt>
      <trkpt lat="48.70505" lon="2.03775">
        <ele>79.9</ele>
        <time>2021-12-16T10:48:47Z</time>
      </trkpt>
      <trkpt lat="48.70502" lon="2.03802">
        <ele>79.9</ele>
        <time>2021-12-16T10:49:08Z</time>
      </trkpt>
      <trkpt lat="48.70494" lon="2.03827">
        <ele>79.4</ele>
        <time>2021-12-16T10:49:25Z</time>
      </trkpt>
      <trkpt lat="48.70493" lon="2.03856">
        <ele>79.2</ele>
        <time>2021-12-16T10:49:38Z</time>
      </trkpt>
      <trkpt lat="48.70486" lon="2.03881">
        <ele>78.8</ele>
        <time>2021-12-16T10:49:53Z</time>
      </trkpt>
      <trkpt lat="48.70478" lon="2.03906">
        <ele>78.7</ele>
        <time>2021-12-16T10:55:50Z</time>
      </trkpt>
      <trkpt lat="48.70462" lon="2.0392">
        <ele>80.4</ele>
        <time>2021-12-16T10:56:05Z</time>
      </trkpt>
      <trkpt lat="48.70451" lon="2.03945">
        <ele>81.7</ele>
        <time>2021-12-16T10:56:22Z</time>
      </trkpt>
      <trkpt lat="48.70442" lon="2.0397">
        <ele>81.4</ele>
        <time>2021-12-16T10:56:39Z</time>
      </trkpt>
      <trkpt lat="48.70435" lon="2.03995">
        <ele>82.9</ele>
        <time>2021-12-16T10:56:55Z</time>
      </trkpt>
      <trkpt lat="48.70431" lon="2.04022">
        <ele>83.9</ele>
        <time>2021-12-16T10:57:08Z</time>
      </trkpt>
      <trkpt lat="48.70426" lon="2.0405">
        <ele>83.5</ele>
        <time>2021-12-16T10:57:22Z</time>
      </trkpt>
      <trkpt lat="48.70427" lon="2.04078">
        <ele>83.2</ele>
        <time>2021-12-16T10:57:53Z</time>
      </trkpt>
      <trkpt lat="48.70422" lon="2.04105">
        <ele>83.5</ele>
        <time>2021-12-16T10:58:08Z</time>
      </trkpt>
      <trkpt lat="48.70417" lon="2.04132">
        <ele>83.2</ele>
        <time>2021-12-16T10:58:22Z</time>
      </trkpt>
      <trkpt lat="48.70414" lon="2.0416">
        <ele>83.3</ele>
        <time>2021-12-16T10:58:38Z</time>
      </trkpt>
      <trkpt lat="48.7041" lon="2.04187">
        <ele>83.1</ele>
        <time>2021-12-16T10:58:52Z</time>
      </trkpt>
      <trkpt lat="48.7041" lon="2.04215">
        <ele>82.8</ele>
        <time>2021-12-16T10:59:06Z</time>
      </trkpt>
      <trkpt lat="48.70405" lon="2.04242">
        <ele>83.7</ele>
        <time>2021-12-16T10:59:20Z</time>
      </trkpt>
      <trkpt lat="48.70406" lon="2.0427">
        <ele>84</ele>
        <time>2021-12-16T10:59:34Z</time>
      </trkpt>
      <trkpt lat="48.70412" lon="2.04297">
        <ele>84.1</ele>
        <time>2021-12-16T10:59:47Z</time>
      </trkpt>
      <trkpt lat="48.70414" lon="2.04326">
        <ele>84.3</ele>
        <time>2021-12-16T11:00:03Z</time>
      </trkpt>
      <trkpt lat="48.70413" lon="2.04354">
        <ele>85</ele>
        <time>2021-12-16T11:00:17Z</time>
      </trkpt>
      <trkpt lat="48.70413" lon="2.04381">
        <ele>85.3</ele>
        <time>2021-12-16T11:00:33Z</time>
      </trkpt>
      <trkpt lat="48.70402" lon="2.04404">
        <ele>86</ele>
        <time>2021-12-16T11:00:47Z</time>
      </trkpt>
      <trkpt lat="48.70386" lon="2.04416">
        <ele>87.1</ele>
        <time>2021-12-16T11:01:03Z</time>
      </trkpt>
    </trkseg>
  </trk>
</gpx>